Time;durP1;ratioP1;P1;durP2;ratioP2;P2;SDS_P1;SDS_P2;PMS_P1;PMS_P2;Temp;Humidity;BMP_temperature;BMP_pressure;BME280_temperature;BME280_humidity;BME280_pressure;Samples;Min_cycle;Max_cycle;Signal;HPM_P1;HPM_P2
2023/04/20 00:00:28;;;;;;;26.00;17.43;;;12.90;99.90;;;;;;4992646;28;20457;-82
2023/04/20 00:02:54;;;;;;;26.97;17.20;;;12.80;99.90;;;;;;4993890;28;20442;-82
2023/04/20 00:05:20;;;;;;;23.50;17.00;;;12.80;99.90;;;;;;4993703;28;20284;-82
2023/04/20 00:07:47;;;;;;;23.57;17.40;;;12.70;99.90;;;;;;4993851;28;20172;-83
2023/04/20 00:10:12;;;;;;;25.27;16.93;;;12.70;99.90;;;;;;4992753;28;20851;-83
2023/04/20 00:12:38;;;;;;;25.77;17.87;;;12.60;99.90;;;;;;4992672;28;20430;-82
2023/04/20 00:15:05;;;;;;;22.00;16.50;;;12.60;99.90;;;;;;4993877;28;20203;-81
2023/04/20 00:17:30;;;;;;;23.67;16.93;;;12.50;99.90;;;;;;4993877;28;20731;-81
2023/04/20 00:19:56;;;;;;;24.03;16.53;;;12.50;99.90;;;;;;4993839;28;20437;-83
2023/04/20 00:22:22;;;;;;;23.60;17.47;;;12.50;99.90;;;;;;4993778;28;20782;-81
2023/04/20 00:24:48;;;;;;;21.10;15.30;;;12.50;99.90;;;;;;4992305;28;20223;-82
2023/04/20 00:27:13;;;;;;;23.77;18.47;;;12.50;99.90;;;;;;4993786;28;20207;-83
2023/04/20 00:29:39;;;;;;;25.53;17.30;;;12.40;99.90;;;;;;4993606;28;20196;-83
2023/04/20 00:32:05;;;;;;;26.60;17.97;;;12.40;99.90;;;;;;4992403;28;20230;-82
2023/04/20 00:34:31;;;;;;;24.60;17.30;;;12.40;99.90;;;;;;4993672;28;20430;-82
2023/04/20 00:36:56;;;;;;;23.80;17.63;;;12.40;99.90;;;;;;4992351;28;20434;-81
2023/04/20 00:39:22;;;;;;;27.60;18.63;;;12.30;99.90;;;;;;4993750;28;20236;-83
2023/04/20 00:41:48;;;;;;;21.60;16.57;;;12.30;99.90;;;;;;4997224;28;20637;-83
2023/04/20 00:44:13;;;;;;;24.47;17.27;;;12.30;99.90;;;;;;4995607;28;20618;-83
2023/04/20 00:46:40;;;;;;;25.37;17.83;;;12.30;99.90;;;;;;4995809;28;20278;-82
2023/04/20 00:49:06;;;;;;;26.83;18.63;;;12.20;99.90;;;;;;4995670;28;20186;-82
2023/04/20 00:51:34;;;;;;;28.45;18.65;;;12.20;99.90;;;;;;4997431;28;20648;-82
2023/04/20 00:54:00;;;;;;;25.25;17.65;;;12.10;99.90;;;;;;4995619;28;20188;-81
2023/04/20 00:56:26;;;;;;;29.25;18.40;;;12.10;99.90;;;;;;4995716;28;20210;-83
2023/04/20 00:58:52;;;;;;;24.30;17.60;;;12.00;99.90;;;;;;4995740;28;20187;-81
2023/04/20 01:01:18;;;;;;;27.07;18.13;;;12.00;99.90;;;;;;4996691;28;20449;-80
2023/04/20 01:03:44;;;;;;;28.00;19.10;;;11.90;99.90;;;;;;4997060;28;20184;-81
2023/04/20 01:06:13;;;;;;;27.73;18.77;;;11.90;99.90;;;;;;4995631;28;20689;-83
2023/04/20 01:08:49;;;;;;;26.95;18.58;;;11.90;99.90;;;;;;4995422;28;20191;-83
2023/04/20 01:11:15;;;;;;;26.48;19.63;;;11.80;99.90;;;;;;4996411;28;20195;-81
2023/04/20 01:13:42;;;;;;;27.80;18.73;;;11.80;99.90;;;;;;4995277;28;20192;-81
2023/04/20 01:16:08;;;;;;;27.40;19.02;;;11.80;99.90;;;;;;4996818;28;20446;-81
2023/04/20 01:18:45;;;;;;;26.50;18.05;;;11.70;99.90;;;;;;4996416;28;20199;-82
2023/04/20 01:21:16;;;;;;;28.45;19.17;;;11.70;99.90;;;;;;4995319;28;20192;-82
2023/04/20 01:23:43;;;;;;;25.80;18.15;;;11.70;99.90;;;;;;4996306;28;20180;-81
2023/04/20 01:26:11;;;;;;;27.23;19.30;;;11.70;99.90;;;;;;4995051;28;20225;-83
2023/04/20 01:28:37;;;;;;;28.23;20.38;;;11.60;99.90;;;;;;4996295;28;20222;-81
2023/04/20 01:31:07;;;;;;;30.47;19.13;;;11.70;99.90;;;;;;4995048;28;20235;-80
2023/04/20 01:33:33;;;;;;;25.83;17.38;;;11.60;99.90;;;;;;4994946;28;20501;-83
2023/04/20 01:35:59;;;;;;;29.27;19.75;;;11.60;99.90;;;;;;4996382;28;20220;-84
2023/04/20 01:38:25;;;;;;;31.33;19.40;;;11.50;99.90;;;;;;4994597;28;20262;-81
2023/04/20 01:40:52;;;;;;;30.55;19.50;;;11.50;99.90;;;;;;4996248;28;20271;-83
2023/04/20 01:43:19;;;;;;;27.20;19.23;;;11.50;99.90;;;;;;4996025;28;20203;-81
2023/04/20 01:45:44;;;;;;;27.08;19.42;;;11.50;99.90;;;;;;4994395;28;20644;-83
2023/04/20 01:48:10;;;;;;;28.13;19.63;;;11.50;99.90;;;;;;4994690;28;20274;-82
2023/04/20 01:50:36;;;;;;;31.30;20.17;;;11.50;99.90;;;;;;4994306;28;20207;-80
2023/04/20 01:53:02;;;;;;;28.00;19.07;;;11.50;99.90;;;;;;4994543;28;20414;-81
2023/04/20 01:55:27;;;;;;;26.30;18.23;;;11.40;99.90;;;;;;4994529;28;20656;-81
2023/04/20 01:57:53;;;;;;;29.00;20.07;;;11.40;99.90;;;;;;4995823;28;20172;-81
2023/04/20 02:00:19;;;;;;;32.00;20.30;;;11.40;99.90;;;;;;4995934;28;20197;-82
2023/04/20 02:02:45;;;;;;;31.47;21.53;;;11.40;99.90;;;;;;4994355;28;20184;-80
2023/04/20 02:05:11;;;;;;;29.23;19.50;;;11.40;99.90;;;;;;4995500;28;20484;-83
2023/04/20 02:07:36;;;;;;;29.63;20.97;;;11.40;99.90;;;;;;4994308;28;20266;-82
2023/04/20 02:10:03;;;;;;;27.00;18.70;;;11.40;99.90;;;;;;4994154;28;20298;-83
2023/04/20 02:12:29;;;;;;;27.90;18.52;;;11.40;99.90;;;;;;4994221;28;20278;-81
2023/04/20 02:14:55;;;;;;;27.40;18.90;;;11.40;99.90;;;;;;4994044;28;20245;-81
2023/04/20 02:17:20;;;;;;;28.57;18.50;;;11.40;99.90;;;;;;4994170;28;20176;-83
2023/04/20 02:19:46;;;;;;;26.20;18.37;;;11.30;99.90;;;;;;4995252;28;20527;-81
2023/04/20 02:22:12;;;;;;;24.80;18.97;;;11.30;99.90;;;;;;4994072;28;20227;-83
2023/04/20 02:24:40;;;;;;;25.70;19.07;;;11.30;99.90;;;;;;4995038;28;20512;-83
2023/04/20 02:27:06;;;;;;;29.17;18.27;;;11.20;99.90;;;;;;4993829;28;20426;-83
2023/04/20 02:29:32;;;;;;;29.83;19.27;;;11.20;99.90;;;;;;4995059;28;20235;-81
2023/04/20 02:31:57;;;;;;;26.87;17.97;;;11.20;99.90;;;;;;4993823;28;20215;-80
2023/04/20 02:34:23;;;;;;;24.73;18.27;;;11.20;99.90;;;;;;4995015;28;20255;-81
2023/04/20 02:36:49;;;;;;;23.63;17.20;;;11.20;99.90;;;;;;4995063;28;20184;-81
2023/04/20 02:39:14;;;;;;;26.50;18.27;;;11.20;99.90;;;;;;4994637;28;20227;-83
2023/04/20 02:41:40;;;;;;;30.40;19.23;;;11.20;99.90;;;;;;4993713;28;20649;-82
2023/04/20 02:44:06;;;;;;;28.80;20.00;;;11.10;99.90;;;;;;4995097;28;20178;-83
2023/04/20 02:46:31;;;;;;;33.27;20.43;;;11.10;99.90;;;;;;4995269;28;20242;-82
2023/04/20 02:48:57;;;;;;;28.83;20.03;;;11.10;99.90;;;;;;4994800;28;20183;-83
2023/04/20 02:51:23;;;;;;;29.90;19.03;;;11.00;99.90;;;;;;4993378;28;20204;-81
2023/04/20 02:53:49;;;;;;;25.90;20.00;;;11.10;99.90;;;;;;4994761;28;20238;-82
2023/04/20 02:56:14;;;;;;;28.43;18.80;;;11.10;99.90;;;;;;4995213;28;20548;-81
2023/04/20 02:58:40;;;;;;;26.67;19.50;;;11.00;99.90;;;;;;4994713;28;20649;-81
2023/04/20 03:01:06;;;;;;;29.37;19.63;;;11.00;99.90;;;;;;4994878;28;20199;-83
2023/04/20 03:03:32;;;;;;;27.97;20.47;;;11.00;99.90;;;;;;4993811;28;20649;-82
2023/04/20 03:05:58;;;;;;;30.37;20.13;;;11.00;99.90;;;;;;4994766;28;20473;-83
2023/04/20 03:08:24;;;;;;;32.97;20.27;;;11.00;99.90;;;;;;4994405;28;20551;-83
2023/04/20 03:10:50;;;;;;;28.55;20.13;;;11.00;99.90;;;;;;4993148;28;20200;-83
2023/04/20 03:13:15;;;;;;;30.50;18.60;;;11.00;99.90;;;;;;4993238;28;20202;-82
2023/04/20 03:15:42;;;;;;;28.57;19.53;;;10.90;99.90;;;;;;4993140;28;20195;-81
2023/04/20 03:18:08;;;;;;;34.70;20.38;;;10.90;99.90;;;;;;4993083;28;20188;-80
2023/04/20 03:20:34;;;;;;;27.77;19.90;;;10.90;99.90;;;;;;4993026;28;20294;-83
2023/04/20 03:23:00;;;;;;;25.55;18.77;;;11.00;99.90;;;;;;4993001;28;20279;-82
2023/04/20 03:25:26;;;;;;;30.93;19.13;;;11.10;99.90;;;;;;4992813;28;20764;-82
2023/04/20 03:27:51;;;;;;;27.17;19.87;;;11.20;99.90;;;;;;4994333;28;20210;-82
2023/04/20 03:30:17;;;;;;;26.60;19.27;;;11.20;99.90;;;;;;4993025;28;20445;-82
2023/04/20 03:32:44;;;;;;;28.17;19.43;;;11.20;99.90;;;;;;4992953;28;20428;-82
2023/04/20 03:35:10;;;;;;;32.90;20.88;;;11.20;99.90;;;;;;4994304;28;20799;-81
2023/04/20 03:37:38;;;;;;;33.40;20.80;;;11.20;99.90;;;;;;4994142;28;20180;-81
2023/04/20 03:40:06;;;;;;;28.02;19.77;;;11.20;99.90;;;;;;4994164;28;20856;-82
2023/04/20 03:42:32;;;;;;;27.33;18.58;;;11.20;99.90;;;;;;4994088;28;20172;-82
2023/04/20 03:44:57;;;;;;;30.63;21.00;;;11.30;99.90;;;;;;4989847;28;20215;-81
2023/04/20 03:47:23;;;;;;;31.33;21.63;;;11.30;99.90;;;;;;4982587;28;20551;-80
2023/04/20 03:49:49;;;;;;;31.37;20.73;;;11.20;99.90;;;;;;4989158;28;20204;-81
2023/04/20 03:52:14;;;;;;;29.10;20.90;;;11.20;99.90;;;;;;4992774;28;20238;-82
2023/04/20 03:54:40;;;;;;;31.13;21.20;;;11.20;99.90;;;;;;4993746;28;20192;-83
2023/04/20 03:57:06;;;;;;;27.40;18.60;;;11.20;99.90;;;;;;4992561;28;20176;-81
2023/04/20 03:59:32;;;;;;;29.10;20.20;;;11.20;99.90;;;;;;4994189;28;20476;-82
2023/04/20 04:01:58;;;;;;;24.40;19.20;;;11.10;99.90;;;;;;4994032;28;20433;-83
2023/04/20 04:04:24;;;;;;;25.30;18.98;;;11.10;99.90;;;;;;4993475;28;20676;-83
2023/04/20 04:06:50;;;;;;;27.00;17.98;;;11.10;99.90;;;;;;4993884;28;20184;-83
2023/04/20 04:09:16;;;;;;;26.67;18.27;;;11.10;99.90;;;;;;4993742;28;20198;-84
2023/04/20 04:11:42;;;;;;;25.40;18.33;;;11.20;99.90;;;;;;4993721;28;20803;-81
2023/04/20 04:14:08;;;;;;;24.73;17.40;;;11.20;99.90;;;;;;4993904;28;20186;-82
2023/04/20 04:16:34;;;;;;;24.60;18.30;;;11.20;99.90;;;;;;4996446;28;20258;-81
2023/04/20 04:18:59;;;;;;;32.47;20.43;;;11.30;99.90;;;;;;4996125;28;20199;-83
2023/04/20 04:21:27;;;;;;;24.83;19.03;;;11.30;99.90;;;;;;4996672;28;20200;-83
2023/04/20 04:23:52;;;;;;;27.88;19.75;;;11.40;99.90;;;;;;4994668;28;20180;-81
2023/04/20 04:26:23;;;;;;;29.23;20.83;;;11.40;99.90;;;;;;4996468;28;20294;-81
2023/04/20 04:28:51;;;;;;;27.70;19.35;;;11.50;99.90;;;;;;4995588;28;20556;-84
2023/04/20 04:31:20;;;;;;;33.17;20.15;;;11.60;99.90;;;;;;4997297;28;20307;-83
2023/04/20 04:33:46;;;;;;;27.08;19.88;;;11.80;99.90;;;;;;4997052;28;20176;-84
2023/04/20 04:36:14;;;;;;;30.87;22.67;;;11.80;99.90;;;;;;4996904;28;20563;-83
2023/04/20 04:38:43;;;;;;;27.20;20.65;;;11.80;99.90;;;;;;4996982;28;20607;-83
2023/04/20 04:41:11;;;;;;;30.70;20.73;;;11.80;99.90;;;;;;4997284;28;20671;-83
2023/04/20 04:43:40;;;;;;;27.80;21.30;;;11.80;99.90;;;;;;4996085;28;20180;-81
2023/04/20 04:46:10;;;;;;;29.63;21.65;;;11.80;99.90;;;;;;4994860;28;20227;-83
2023/04/20 04:48:36;;;;;;;25.50;19.83;;;11.80;99.90;;;;;;4995777;28;20503;-80
2023/04/20 04:51:02;;;;;;;28.92;20.33;;;11.80;99.90;;;;;;4994229;28;20206;-82
2023/04/20 04:53:28;;;;;;;28.67;19.45;;;11.80;99.90;;;;;;4994748;28;20186;-82
2023/04/20 04:55:54;;;;;;;27.88;19.83;;;11.90;99.90;;;;;;4996126;28;20200;-83
2023/04/20 04:58:20;;;;;;;24.83;19.23;;;11.90;99.90;;;;;;4996433;28;20179;-80
2023/04/20 05:00:45;;;;;;;26.57;18.70;;;12.00;99.90;;;;;;4994935;28;20235;-83
2023/04/20 05:03:11;;;;;;;26.23;19.27;;;12.00;99.90;;;;;;4995037;28;20326;-83
2023/04/20 05:05:37;;;;;;;27.63;20.73;;;12.10;99.90;;;;;;4995178;28;20220;-81
2023/04/20 05:08:03;;;;;;;24.53;19.30;;;12.20;99.90;;;;;;4994595;28;20187;-81
2023/04/20 05:10:28;;;;;;;24.43;18.40;;;12.30;99.90;;;;;;4996635;28;20204;-83
2023/04/20 05:12:54;;;;;;;27.40;20.17;;;12.40;99.90;;;;;;4995214;28;20424;-82
2023/04/20 05:15:20;;;;;;;26.20;20.17;;;12.40;99.90;;;;;;4996569;28;20258;-84
2023/04/20 05:17:48;;;;;;;24.07;19.17;;;12.50;99.90;;;;;;4994947;28;20417;-82
2023/04/20 05:20:14;;;;;;;25.88;19.25;;;12.60;99.90;;;;;;4994300;28;20200;-81
2023/04/20 05:22:40;;;;;;;27.60;19.57;;;12.70;99.90;;;;;;4995326;28;20172;-83
2023/04/20 05:25:06;;;;;;;23.90;19.07;;;12.80;99.90;;;;;;4992156;28;20860;-81
2023/04/20 05:27:33;;;;;;;26.25;19.65;;;12.70;99.90;;;;;;4993001;28;20505;-81
2023/04/20 05:29:59;;;;;;;26.10;18.40;;;12.60;99.90;;;;;;4993792;28;20628;-82
2023/04/20 05:32:24;;;;;;;23.80;18.30;;;12.50;99.90;;;;;;4993720;28;20274;-83
2023/04/20 05:34:50;;;;;;;21.63;18.30;;;12.50;99.90;;;;;;4992338;28;20838;-84
2023/04/20 05:37:16;;;;;;;30.70;23.60;;;12.60;99.90;;;;;;4992275;28;20183;-83
2023/04/20 05:39:42;;;;;;;23.57;18.40;;;12.60;99.90;;;;;;4991480;28;20242;-82
2023/04/20 05:42:07;;;;;;;21.50;17.63;;;12.70;99.90;;;;;;4993566;28;20196;-82
2023/04/20 05:44:35;;;;;;;19.77;17.20;;;12.70;99.90;;;;;;4993846;28;21703;-83
2023/04/20 05:47:05;;;;;;;23.50;18.90;;;12.80;99.90;;;;;;4992313;28;20187;-81
2023/04/20 05:49:31;;;;;;;26.00;17.03;;;12.80;99.90;;;;;;4992987;28;20449;-83
2023/04/20 05:51:57;;;;;;;18.43;16.20;;;12.90;99.90;;;;;;4992799;28;20425;-83
2023/04/20 05:54:23;;;;;;;19.50;16.53;;;13.00;99.90;;;;;;4991985;28;20926;-83
2023/04/20 05:56:49;;;;;;;20.60;16.37;;;13.10;99.90;;;;;;4989060;28;20440;-81
2023/04/20 05:59:16;;;;;;;19.40;15.30;;;13.20;99.90;;;;;;4989413;28;20201;-81
2023/04/20 06:01:42;;;;;;;20.03;16.00;;;13.30;99.90;;;;;;4989688;28;20653;-81
2023/04/20 06:04:07;;;;;;;18.60;15.70;;;13.30;99.90;;;;;;4989621;28;20958;-82
2023/04/20 06:06:33;;;;;;;18.40;14.93;;;13.40;99.90;;;;;;4990499;28;20437;-81
2023/04/20 06:08:59;;;;;;;17.40;15.03;;;13.50;99.90;;;;;;4989741;28;20215;-82
2023/04/20 06:11:25;;;;;;;22.37;16.20;;;13.60;99.90;;;;;;4989379;28;20444;-82
2023/04/20 06:13:51;;;;;;;21.23;15.63;;;13.70;99.90;;;;;;4988628;28;20426;-83
2023/04/20 06:16:16;;;;;;;17.03;14.93;;;13.70;99.90;;;;;;4990062;28;20437;-82
2023/04/20 06:18:42;;;;;;;19.67;14.33;;;13.80;99.90;;;;;;4990205;28;20188;-82
2023/04/20 06:21:11;;;;;;;22.57;16.07;;;13.90;99.90;;;;;;4990642;28;20349;-82
2023/04/20 06:23:37;;;;;;;21.63;16.20;;;14.00;99.90;;;;;;4989619;28;20947;-81
2023/04/20 06:26:03;;;;;;;15.77;14.07;;;14.10;99.90;;;;;;4990243;28;20495;-81
2023/04/20 06:28:29;;;;;;;15.00;13.20;;;14.20;99.90;;;;;;4991932;28;20514;-80
2023/04/20 06:30:55;;;;;;;15.90;13.30;;;14.30;99.90;;;;;;4993012;28;20536;-82
2023/04/20 06:33:21;;;;;;;25.50;17.63;;;14.40;99.90;;;;;;4991240;28;20530;-81
2023/04/20 06:35:47;;;;;;;17.07;14.90;;;14.40;99.90;;;;;;4990845;28;20587;-83
2023/04/20 06:38:12;;;;;;;18.23;13.40;;;14.50;99.90;;;;;;4988400;28;20255;-83
2023/04/20 06:40:38;;;;;;;15.67;12.07;;;14.60;99.90;;;;;;4989960;28;20195;-81
2023/04/20 06:43:04;;;;;;;14.73;12.23;;;14.70;99.90;;;;;;4988809;28;20195;-81
2023/04/20 06:45:29;;;;;;;16.93;13.37;;;14.80;99.90;;;;;;4988253;28;20208;-82
2023/04/20 06:47:55;;;;;;;13.70;11.83;;;14.90;99.90;;;;;;4987012;28;20176;-82
2023/04/20 06:50:21;;;;;;;16.90;13.13;;;15.00;99.90;;;;;;4987915;28;20191;-84
2023/04/20 06:52:47;;;;;;;15.37;12.07;;;15.00;99.90;;;;;;4985540;28;20180;-83
2023/04/20 06:55:12;;;;;;;13.57;12.17;;;15.10;99.90;;;;;;4987592;28;20866;-82
2023/04/20 06:57:38;;;;;;;12.17;10.97;;;15.00;99.90;;;;;;4989471;28;20194;-81
2023/04/20 07:00:09;;;;;;;12.43;10.83;;;15.00;99.90;;;;;;4989690;28;20576;-85
2023/04/20 07:02:49;;;;;;;13.70;12.03;;;15.10;99.90;;;;;;4991253;28;20564;-80
2023/04/20 07:05:15;;;;;;;12.70;10.30;;;15.20;99.90;;;;;;4991683;28;20519;-86
2023/04/20 07:07:41;;;;;;;15.40;11.27;;;15.30;99.90;;;;;;4989740;28;20444;-81
2023/04/20 07:10:08;;;;;;;14.37;11.47;;;15.40;99.90;;;;;;4990731;28;20789;-86
2023/04/20 07:12:35;;;;;;;13.57;10.70;;;15.40;99.90;;;;;;4987717;28;20429;-84
2023/04/20 07:15:03;;;;;;;13.00;10.80;;;15.50;99.90;;;;;;4987447;28;20518;-85
2023/04/20 07:17:29;;;;;;;13.83;11.43;;;15.60;99.90;;;;;;4991926;28;20406;-81
2023/04/20 07:19:57;;;;;;;13.50;10.10;;;15.70;99.90;;;;;;4983566;28;21026;-80
2023/04/20 07:22:24;;;;;;;13.37;10.60;;;15.80;99.90;;;;;;4975104;28;20410;-81
2023/04/20 07:24:50;;;;;;;12.00;10.37;;;16.00;99.90;;;;;;4988252;28;20596;-85
2023/04/20 07:27:16;;;;;;;13.20;10.83;;;16.20;99.90;;;;;;4988454;28;20417;-85
2023/04/20 07:29:42;;;;;;;13.53;11.37;;;16.40;99.90;;;;;;4987483;28;20536;-81
2023/04/20 07:32:08;;;;;;;14.90;12.00;;;16.50;99.90;;;;;;4987886;28;20524;-83
2023/04/20 07:34:34;;;;;;;12.10;10.43;;;16.60;99.90;;;;;;4986106;28;20215;-81
2023/04/20 07:36:59;;;;;;;12.10;10.33;;;16.70;99.90;;;;;;4989804;28;20172;-83
2023/04/20 07:39:27;;;;;;;13.57;10.60;;;16.80;99.90;;;;;;4990975;28;20739;-81
2023/04/20 07:41:53;;;;;;;13.10;11.40;;;16.90;99.90;;;;;;4989032;28;20172;-81
2023/04/20 07:44:19;;;;;;;14.70;10.93;;;17.00;99.90;;;;;;4990728;28;20398;-85
2023/04/20 07:46:45;;;;;;;12.90;10.23;;;17.10;99.90;;;;;;4989238;28;21009;-85
2023/04/20 07:49:10;;;;;;;13.80;11.67;;;17.20;99.90;;;;;;4989660;28;20516;-81
2023/04/20 07:51:36;;;;;;;12.70;10.77;;;17.30;99.90;;;;;;4992540;28;20652;-85
2023/04/20 07:54:02;;;;;;;12.30;9.67;;;17.40;99.90;;;;;;4990636;28;20194;-81
2023/04/20 07:56:30;;;;;;;10.80;9.27;;;17.50;99.90;;;;;;4976554;28;20455;-81
2023/04/20 07:58:56;;;;;;;9.87;8.80;;;17.60;99.90;;;;;;5004480;28;20177;-81
2023/04/20 08:01:25;;;;;;;10.90;8.60;;;17.60;99.90;;;;;;4989123;28;20903;-85
2023/04/20 08:03:53;;;;;;;10.93;9.70;;;17.70;99.90;;;;;;4995749;28;20271;-85
2023/04/20 08:06:19;;;;;;;10.93;9.20;;;17.90;99.90;;;;;;4990705;28;20482;-81
2023/04/20 08:08:45;;;;;;;11.80;9.20;;;18.00;99.90;;;;;;4984094;28;20440;-83
2023/04/20 08:11:11;;;;;;;9.53;8.30;;;18.10;99.90;;;;;;4986491;28;20638;-81
2023/04/20 08:13:37;;;;;;;11.47;8.20;;;18.20;99.90;;;;;;4984181;28;20199;-82
2023/04/20 08:16:02;;;;;;;10.10;8.50;;;18.30;99.90;;;;;;4983054;28;20474;-86
2023/04/20 08:18:31;;;;;;;14.70;8.97;;;18.40;99.90;;;;;;4986501;28;20176;-82
2023/04/20 08:20:57;;;;;;;7.70;7.00;;;18.50;99.90;;;;;;4987580;28;20200;-86
2023/04/20 08:23:26;;;;;;;10.30;7.90;;;18.60;99.90;;;;;;4983214;28;20433;-81
2023/04/20 08:25:53;;;;;;;11.53;9.07;;;18.70;99.90;;;;;;4990553;28;20485;-81
2023/04/20 08:28:19;;;;;;;10.53;8.57;;;18.90;99.90;;;;;;4989899;28;20473;-81
2023/04/20 08:30:45;;;;;;;10.30;8.10;;;19.00;99.90;;;;;;4986173;28;20463;-86
2023/04/20 08:33:11;;;;;;;10.17;8.73;;;19.10;99.90;;;;;;4984047;28;20993;-85
2023/04/20 08:35:37;;;;;;;9.70;8.90;;;19.20;99.90;;;;;;4982487;28;20521;-86
2023/04/20 08:38:02;;;;;;;8.37;7.53;;;19.40;99.90;;;;;;4980504;28;20471;-81
2023/04/20 08:40:30;;;;;;;8.93;8.03;;;19.50;99.90;;;;;;4990374;28;20226;-86
2023/04/20 08:43:00;;;;;;;9.30;8.40;;;19.60;99.90;;;;;;4991920;28;20629;-82
2023/04/20 08:45:26;;;;;;;8.37;7.53;;;19.60;99.90;;;;;;4992473;28;20851;-82
2023/04/20 08:47:52;;;;;;;8.03;7.23;;;19.70;99.90;;;;;;4994006;28;20761;-85
2023/04/20 08:50:19;;;;;;;8.10;7.30;;;19.80;99.90;;;;;;4996490;28;20437;-86
2023/04/20 08:52:45;;;;;;;7.33;6.63;;;19.90;99.90;;;;;;4990302;28;20471;-82
2023/04/20 08:55:15;;;;;;;8.23;7.13;;;20.20;99.90;;;;;;4983940;28;20468;-82
2023/04/20 08:57:41;;;;;;;7.30;6.30;;;20.90;99.90;;;;;;4989387;28;20540;-82
2023/04/20 09:00:09;;;;;;;7.23;6.50;;;21.80;99.90;;;;;;4988708;28;20543;-85
2023/04/20 09:02:36;;;;;;;8.73;6.73;;;22.60;99.90;;;;;;4985286;28;20194;-86
2023/04/20 09:05:05;;;;;;;7.40;5.50;;;23.10;99.90;;;;;;4985268;28;20497;-86
2023/04/20 09:07:31;;;;;;;7.30;6.70;;;23.40;99.90;;;;;;4984546;28;20438;-86
2023/04/20 09:09:59;;;;;;;8.00;6.80;;;23.50;99.90;;;;;;4987458;28;20809;-80
2023/04/20 09:12:25;;;;;;;6.47;5.80;;;23.60;99.90;;;;;;4989418;28;20215;-86
2023/04/20 09:14:52;;;;;;;9.13;6.67;;;23.60;99.90;;;;;;4982280;28;20462;-82
2023/04/20 09:17:33;;;;;;;6.40;5.80;;;23.40;99.90;;;;;;4988548;28;20414;-86
2023/04/20 09:19:59;;;;;;;6.70;5.70;;;23.30;99.90;;;;;;4987397;28;20433;-86
2023/04/20 09:22:36;;;;;;;6.57;5.90;;;23.20;99.90;;;;;;4991955;28;20418;-85
2023/04/20 09:25:17;;;;;;;6.40;5.57;;;23.10;99.90;;;;;;4986999;28;20584;-86
2023/04/20 09:27:54;;;;;;;6.43;5.83;;;23.00;99.90;;;;;;4989197;28;20444;-86
2023/04/20 09:30:20;;;;;;;7.00;6.30;;;22.90;99.90;;;;;;4985665;28;21266;-85
2023/04/20 09:32:46;;;;;;;6.70;6.17;;;22.90;99.90;;;;;;4992760;28;20914;-81
2023/04/20 09:35:11;;;;;;;7.80;7.00;;;22.80;99.90;;;;;;4992669;28;20815;-86
2023/04/20 09:37:46;;;;;;;8.10;7.40;;;22.80;99.90;;;;;;4992175;28;20426;-86
2023/04/20 09:40:13;;;;;;;7.20;6.50;;;22.80;99.90;;;;;;4986821;28;20207;-82
2023/04/20 09:42:41;;;;;;;7.13;6.43;;;22.80;99.90;;;;;;4993741;28;20429;-86
2023/04/20 09:45:08;;;;;;;8.10;7.30;;;22.80;99.90;;;;;;4994935;28;20497;-82
2023/04/20 09:47:40;;;;;;;7.20;6.60;;;22.80;99.90;;;;;;4983920;28;21029;-86
2023/04/20 09:50:09;;;;;;;7.40;6.80;;;22.80;99.90;;;;;;4990126;28;20508;-82
2023/04/20 09:52:37;;;;;;;6.27;5.67;;;22.80;99.70;;;;;;4992063;28;20488;-85
2023/04/20 09:55:05;;;;;;;7.37;6.67;;;22.80;99.90;;;;;;4987428;28;20468;-86
2023/04/20 09:57:31;;;;;;;6.73;6.20;;;22.80;99.80;;;;;;4996337;28;20437;-82
2023/04/20 09:59:59;;;;;;;8.80;6.57;;;22.80;99.60;;;;;;4990164;28;20889;-86
2023/04/20 10:02:25;;;;;;;7.50;6.70;;;22.90;99.60;;;;;;4988786;28;20429;-81
2023/04/20 10:04:56;;;;;;;7.73;6.60;;;22.80;99.20;;;;;;4994651;28;20484;-82
2023/04/20 10:07:26;;;;;;;7.70;7.00;;;22.90;98.90;;;;;;4994136;28;20168;-86
2023/04/20 10:10:07;;;;;;;8.87;7.30;;;22.80;99.20;;;;;;4992123;28;20469;-86
2023/04/20 10:12:45;;;;;;;9.47;7.00;;;22.80;99.90;;;;;;4974581;28;20412;-85
2023/04/20 10:15:11;;;;;;;9.97;7.27;;;22.80;99.60;;;;;;4987480;28;20460;-86
2023/04/20 10:17:36;;;;;;;7.43;6.73;;;22.80;99.30;;;;;;4990154;28;20398;-83
2023/04/20 10:20:03;;;;;;;8.07;7.37;;;22.80;99.00;;;;;;4989917;28;20437;-81
2023/04/20 10:22:33;;;;;;;8.33;7.40;;;22.80;98.80;;;;;;4990208;28;20672;-81
2023/04/20 10:25:01;;;;;;;9.03;7.10;;;22.80;98.90;;;;;;4985991;28;21262;-85
2023/04/20 10:27:27;;;;;;;8.20;7.50;;;22.80;98.90;;;;;;4987994;28;20452;-81
2023/04/20 10:29:53;;;;;;;7.87;6.53;;;22.80;98.60;;;;;;4986100;28;20812;-82
2023/04/20 10:32:26;;;;;;;7.73;7.03;;;22.80;97.80;;;;;;4986194;28;20669;-81
2023/04/20 10:35:09;;;;;;;7.83;7.03;;;22.80;99.20;;;;;;4990637;28;20665;-82
2023/04/20 10:37:45;;;;;;;8.40;6.80;;;22.80;99.00;;;;;;4968998;28;20427;-86
2023/04/20 10:40:12;;;;;;;9.10;8.20;;;22.80;98.70;;;;;;4971398;28;20556;-82
2023/04/20 10:42:42;;;;;;;7.30;6.47;;;22.80;97.80;;;;;;4971757;28;20402;-86
2023/04/20 10:45:09;;;;;;;9.10;7.73;;;22.80;98.20;;;;;;5003772;28;20579;-82
2023/04/20 10:47:36;;;;;;;12.53;7.20;;;22.80;97.00;;;;;;4974060;28;20475;-81
2023/04/20 10:50:06;;;;;;;7.60;6.83;;;22.70;97.60;;;;;;4986795;28;20895;-86
2023/04/20 10:52:38;;;;;;;8.73;7.00;;;22.60;97.70;;;;;;4991741;28;20471;-81
2023/04/20 10:55:08;;;;;;;6.30;5.80;;;22.70;97.70;;;;;;4984605;28;20906;-82
2023/04/20 10:57:35;;;;;;;7.80;6.57;;;22.70;97.20;;;;;;4988148;28;20947;-82
2023/04/20 11:00:19;;;;;;;7.60;6.90;;;22.60;97.20;;;;;;4986304;28;20460;-85
2023/04/20 11:02:49;;;;;;;10.00;6.20;;;22.50;96.70;;;;;;4980698;28;20746;-85
2023/04/20 11:05:16;;;;;;;7.33;6.00;;;22.40;97.00;;;;;;4976200;28;20481;-82
2023/04/20 11:07:52;;;;;;;6.30;5.80;;;22.40;97.00;;;;;;4987828;28;20445;-81
2023/04/20 11:10:18;;;;;;;6.33;5.37;;;22.50;96.90;;;;;;4983398;28;20891;-86
2023/04/20 11:12:44;;;;;;;6.40;5.90;;;22.50;96.90;;;;;;4982995;28;20507;-82
2023/04/20 11:15:10;;;;;;;6.00;5.40;;;22.50;96.50;;;;;;4980470;28;20465;-81
2023/04/20 11:17:36;;;;;;;10.73;5.20;;;22.40;96.70;;;;;;4984028;28;20192;-84
2023/04/20 11:20:15;;;;;;;6.67;5.70;;;22.30;97.00;;;;;;4984353;28;20204;-85
2023/04/20 11:22:42;;;;;;;7.10;5.87;;;22.30;96.50;;;;;;4981998;28;20432;-86
2023/04/20 11:25:09;;;;;;;6.63;5.17;;;22.40;96.40;;;;;;4981279;28;20483;-81
2023/04/20 11:27:36;;;;;;;5.90;5.40;;;22.40;96.60;;;;;;4986172;28;20449;-82
2023/04/20 11:30:07;;;;;;;5.70;5.20;;;22.40;95.90;;;;;;4986569;28;20804;-82
2023/04/20 11:32:34;;;;;;;6.60;6.00;;;22.40;96.10;;;;;;4987140;28;20505;-86
2023/04/20 11:35:06;;;;;;;6.47;5.70;;;22.40;95.60;;;;;;4984234;28;20520;-85
2023/04/20 11:37:32;;;;;;;6.30;5.80;;;22.40;96.00;;;;;;4984876;28;21053;-81
2023/04/20 11:40:09;;;;;;;12.03;6.20;;;22.40;96.00;;;;;;4980175;28;20587;-82
2023/04/20 11:42:35;;;;;;;6.67;6.07;;;22.50;95.70;;;;;;4989092;28;20432;-86
2023/04/20 11:45:02;;;;;;;6.30;5.70;;;22.60;96.00;;;;;;4985900;28;20918;-86
2023/04/20 11:47:27;;;;;;;9.17;5.93;;;22.60;95.60;;;;;;4986833;28;20429;-81
2023/04/20 11:49:53;;;;;;;5.43;4.93;;;22.50;96.50;;;;;;4986893;28;20441;-82
2023/04/20 11:52:19;;;;;;;5.30;4.80;;;21.90;96.90;;;;;;4988296;28;20175;-84
2023/04/20 11:54:44;;;;;;;5.83;5.33;;;21.90;96.50;;;;;;4984380;28;20693;-81
2023/04/20 11:57:10;;;;;;;6.23;5.63;;;22.10;95.70;;;;;;4984444;28;20175;-81
2023/04/20 11:59:39;;;;;;;6.70;6.10;;;22.10;95.20;;;;;;4973347;28;20295;-87
2023/04/20 12:02:04;;;;;;;5.87;5.27;;;22.20;95.30;;;;;;4968826;28;20407;-82
2023/04/20 12:04:30;;;;;;;5.73;5.23;;;22.20;95.60;;;;;;4984890;28;21001;-86
2023/04/20 12:06:59;;;;;;;5.53;5.03;;;22.10;95.00;;;;;;4979291;28;20191;-84
2023/04/20 12:09:25;;;;;;;6.20;5.60;;;22.10;95.40;;;;;;4981440;28;20188;-86
2023/04/20 12:11:51;;;;;;;5.93;5.00;;;22.20;95.50;;;;;;4979148;28;20410;-82
2023/04/20 12:14:17;;;;;;;6.33;4.90;;;22.20;95.50;;;;;;4979150;28;20768;-82
2023/04/20 12:16:43;;;;;;;5.87;5.37;;;22.30;95.70;;;;;;4980072;28;20188;-82
2023/04/20 12:19:08;;;;;;;5.47;4.97;;;22.40;95.30;;;;;;4982270;28;20875;-82
2023/04/20 12:21:34;;;;;;;5.60;5.10;;;22.40;95.40;;;;;;4985710;28;20318;-86
2023/04/20 12:24:00;;;;;;;7.00;5.10;;;22.30;94.90;;;;;;4987725;28;20191;-85
2023/04/20 12:26:26;;;;;;;6.93;5.00;;;22.30;94.40;;;;;;4988367;28;20887;-82
2023/04/20 12:28:52;;;;;;;6.03;5.33;;;22.20;95.00;;;;;;4979612;28;20191;-83
2023/04/20 12:31:18;;;;;;;6.10;5.60;;;22.20;95.00;;;;;;4984340;28;20452;-86